YBUP weather

Bunyip Airport
Victoria, Australia

Public forecast

Using degrees Celsius for public forecast. Weather courtesy of forecast.io.

Closest aviation weather report (METAR) to Bunyip Airport

Closest report is Melbourne Essendon Airport, 43.8 nm (81.1 km) WNW. Retrieved 2019/10/23 07:00 UTC (19 minutes ago):

YMEN 230700Z AUTO 18011KT 9999 // NCD 27/04 Q1017

Closest aviation forecast (TAF) to Bunyip Airport

Closest forecast is Melbourne International Airport, 47.7 nm (88.3 km) WNW. Retrieved 2019/10/23 06:00 UTC (1 hour ago):

TAF YMML 230453Z 2306/2412 19010KT CAVOK FM231200 36008KT CAVOK BECMG 2322/2323 36018G32KT CAVOK FM240500 02012KT CAVOK